sensor_id;sensor_type;location;lat;lon;timestamp;P1;durP1;ratioP1;P2;durP2;ratioP2
70780;SDS011;59514;48.810;2.134;2022-08-21T00:01:10;8.15;;;3.42;;
70780;SDS011;59514;48.810;2.134;2022-08-21T00:03:38;6.55;;;3.35;;
70780;SDS011;59514;48.810;2.134;2022-08-21T00:06:04;7.65;;;3.25;;
70780;SDS011;59514;48.810;2.134;2022-08-21T00:08:30;5.32;;;3.05;;
70780;SDS011;59514;48.810;2.134;2022-08-21T00:10:55;7.10;;;2.75;;
70780;SDS011;59514;48.810;2.134;2022-08-21T00:13:21;8.38;;;2.58;;
70780;SDS011;59514;48.810;2.134;2022-08-21T00:15:47;7.18;;;3.40;;
70780;SDS011;59514;48.810;2.134;2022-08-21T00:18:13;7.35;;;3.05;;
70780;SDS011;59514;48.810;2.134;2022-08-21T00:20:41;5.57;;;2.95;;
70780;SDS011;59514;48.810;2.134;2022-08-21T00:23:08;3.67;;;2.63;;
70780;SDS011;59514;48.810;2.134;2022-08-21T00:25:33;8.60;;;3.33;;
70780;SDS011;59514;48.810;2.134;2022-08-21T00:27:59;6.15;;;3.00;;
70780;SDS011;59514;48.810;2.134;2022-08-21T00:30:26;6.60;;;2.90;;
70780;SDS011;59514;48.810;2.134;2022-08-21T00:32:53;6.88;;;3.17;;
70780;SDS011;59514;48.810;2.134;2022-08-21T00:35:21;6.40;;;3.00;;
70780;SDS011;59514;48.810;2.134;2022-08-21T00:37:49;5.18;;;2.60;;
70780;SDS011;59514;48.810;2.134;2022-08-21T00:40:18;5.03;;;2.50;;
70780;SDS011;59514;48.810;2.134;2022-08-21T00:42:48;6.82;;;2.83;;
70780;SDS011;59514;48.810;2.134;2022-08-21T00:45:15;4.05;;;2.60;;
70780;SDS011;59514;48.810;2.134;2022-08-21T00:47:41;5.97;;;2.60;;
70780;SDS011;59514;48.810;2.134;2022-08-21T00:50:07;5.72;;;2.58;;
70780;SDS011;59514;48.810;2.134;2022-08-21T00:52:34;5.30;;;2.65;;
70780;SDS011;59514;48.810;2.134;2022-08-21T00:55:02;5.28;;;2.42;;
70780;SDS011;59514;48.810;2.134;2022-08-21T00:57:32;4.43;;;2.20;;
70780;SDS011;59514;48.810;2.134;2022-08-21T01:00:04;6.40;;;2.55;;
70780;SDS011;59514;48.810;2.134;2022-08-21T01:02:31;6.10;;;2.33;;
70780;SDS011;59514;48.810;2.134;2022-08-21T01:04:56;5.13;;;2.60;;
70780;SDS011;59514;48.810;2.134;2022-08-21T01:07:22;3.70;;;3.03;;
70780;SDS011;59514;48.810;2.134;2022-08-21T01:09:47;7.30;;;2.58;;
70780;SDS011;59514;48.810;2.134;2022-08-21T01:12:13;7.45;;;2.72;;
70780;SDS011;59514;48.810;2.134;2022-08-21T01:14:40;6.38;;;2.65;;
70780;SDS011;59514;48.810;2.134;2022-08-21T01:17:10;4.97;;;2.47;;
70780;SDS011;59514;48.810;2.134;2022-08-21T01:19:38;7.53;;;3.30;;
70780;SDS011;59514;48.810;2.134;2022-08-21T01:22:05;5.13;;;2.80;;
70780;SDS011;59514;48.810;2.134;2022-08-21T01:24:31;4.95;;;2.53;;
70780;SDS011;59514;48.810;2.134;2022-08-21T01:26:57;7.38;;;3.40;;
70780;SDS011;59514;48.810;2.134;2022-08-21T01:29:45;8.13;;;3.22;;
70780;SDS011;59514;48.810;2.134;2022-08-21T01:32:16;4.85;;;2.35;;
70780;SDS011;59514;48.810;2.134;2022-08-21T01:34:44;7.90;;;3.20;;
70780;SDS011;59514;48.810;2.134;2022-08-21T01:37:12;5.13;;;2.60;;
70780;SDS011;59514;48.810;2.134;2022-08-21T01:39:38;4.50;;;2.35;;
70780;SDS011;59514;48.810;2.134;2022-08-21T01:42:04;6.28;;;2.78;;
70780;SDS011;59514;48.810;2.134;2022-08-21T01:44:30;5.53;;;3.10;;
70780;SDS011;59514;48.810;2.134;2022-08-21T01:46:57;3.70;;;2.78;;
70780;SDS011;59514;48.810;2.134;2022-08-21T01:49:24;5.82;;;3.28;;
70780;SDS011;59514;48.810;2.134;2022-08-21T01:51:50;6.82;;;2.90;;
70780;SDS011;59514;48.810;2.134;2022-08-21T01:54:15;5.72;;;2.83;;
70780;SDS011;59514;48.810;2.134;2022-08-21T01:56:42;7.78;;;2.70;;
70780;SDS011;59514;48.810;2.134;2022-08-21T01:59:11;4.50;;;2.65;;
70780;SDS011;59514;48.810;2.134;2022-08-21T02:01:37;5.15;;;3.15;;
70780;SDS011;59514;48.810;2.134;2022-08-21T02:04:04;7.78;;;2.88;;
70780;SDS011;59514;48.810;2.134;2022-08-21T02:06:30;7.13;;;3.20;;
70780;SDS011;59514;48.810;2.134;2022-08-21T02:08:56;7.40;;;3.10;;
70780;SDS011;59514;48.810;2.134;2022-08-21T02:11:21;5.93;;;3.30;;
70780;SDS011;59514;48.810;2.134;2022-08-21T02:13:46;6.07;;;3.10;;
70780;SDS011;59514;48.810;2.134;2022-08-21T02:16:13;7.00;;;2.75;;
70780;SDS011;59514;48.810;2.134;2022-08-21T02:18:39;3.92;;;2.70;;
70780;SDS011;59514;48.810;2.134;2022-08-21T02:21:05;6.00;;;3.22;;
70780;SDS011;59514;48.810;2.134;2022-08-21T02:23:31;5.97;;;3.00;;
70780;SDS011;59514;48.810;2.134;2022-08-21T02:25:57;4.90;;;2.97;;
70780;SDS011;59514;48.810;2.134;2022-08-21T02:28:24;7.55;;;3.30;;
70780;SDS011;59514;48.810;2.134;2022-08-21T02:30:50;6.22;;;3.33;;
70780;SDS011;59514;48.810;2.134;2022-08-21T02:33:17;6.30;;;3.55;;
70780;SDS011;59514;48.810;2.134;2022-08-21T02:35:43;9.65;;;3.80;;
70780;SDS011;59514;48.810;2.134;2022-08-21T02:38:11;4.97;;;3.13;;
70780;SDS011;59514;48.810;2.134;2022-08-21T02:40:39;7.43;;;3.00;;
70780;SDS011;59514;48.810;2.134;2022-08-21T02:43:08;5.68;;;3.28;;
70780;SDS011;59514;48.810;2.134;2022-08-21T02:45:33;6.53;;;3.35;;
70780;SDS011;59514;48.810;2.134;2022-08-21T02:48:04;6.25;;;3.40;;
70780;SDS011;59514;48.810;2.134;2022-08-21T02:50:33;6.82;;;3.55;;
70780;SDS011;59514;48.810;2.134;2022-08-21T02:53:04;6.10;;;3.47;;
70780;SDS011;59514;48.810;2.134;2022-08-21T02:55:31;5.80;;;2.92;;
70780;SDS011;59514;48.810;2.134;2022-08-21T02:57:58;5.05;;;3.08;;
70780;SDS011;59514;48.810;2.134;2022-08-21T03:00:24;4.85;;;3.75;;
70780;SDS011;59514;48.810;2.134;2022-08-21T03:02:51;5.50;;;3.08;;
70780;SDS011;59514;48.810;2.134;2022-08-21T03:05:18;6.88;;;3.33;;
70780;SDS011;59514;48.810;2.134;2022-08-21T03:07:44;6.80;;;3.15;;
70780;SDS011;59514;48.810;2.134;2022-08-21T03:10:10;4.90;;;3.40;;
70780;SDS011;59514;48.810;2.134;2022-08-21T03:12:36;5.63;;;3.17;;
70780;SDS011;59514;48.810;2.134;2022-08-21T03:15:03;4.47;;;2.95;;
70780;SDS011;59514;48.810;2.134;2022-08-21T03:17:31;6.85;;;3.50;;
70780;SDS011;59514;48.810;2.134;2022-08-21T03:19:57;5.38;;;3.15;;
70780;SDS011;59514;48.810;2.134;2022-08-21T03:22:22;6.50;;;2.90;;
70780;SDS011;59514;48.810;2.134;2022-08-21T03:24:47;6.53;;;3.20;;
70780;SDS011;59514;48.810;2.134;2022-08-21T03:27:13;7.78;;;3.25;;
70780;SDS011;59514;48.810;2.134;2022-08-21T03:29:39;7.47;;;3.25;;
70780;SDS011;59514;48.810;2.134;2022-08-21T03:32:05;5.80;;;3.00;;
70780;SDS011;59514;48.810;2.134;2022-08-21T03:34:33;5.43;;;3.20;;
70780;SDS011;59514;48.810;2.134;2022-08-21T03:36:58;8.35;;;3.08;;
70780;SDS011;59514;48.810;2.134;2022-08-21T03:39:23;6.90;;;3.25;;
70780;SDS011;59514;48.810;2.134;2022-08-21T03:41:49;4.85;;;2.78;;
70780;SDS011;59514;48.810;2.134;2022-08-21T03:44:14;5.90;;;3.22;;
70780;SDS011;59514;48.810;2.134;2022-08-21T03:46:39;5.10;;;2.97;;
70780;SDS011;59514;48.810;2.134;2022-08-21T03:49:06;5.15;;;2.97;;
70780;SDS011;59514;48.810;2.134;2022-08-21T03:51:31;6.03;;;3.00;;
70780;SDS011;59514;48.810;2.134;2022-08-21T03:53:58;5.18;;;3.08;;
70780;SDS011;59514;48.810;2.134;2022-08-21T03:56:24;7.72;;;3.15;;
70780;SDS011;59514;48.810;2.134;2022-08-21T03:58:49;6.45;;;3.20;;
70780;SDS011;59514;48.810;2.134;2022-08-21T04:01:14;7.95;;;3.30;;
70780;SDS011;59514;48.810;2.134;2022-08-21T04:03:40;7.15;;;3.10;;
70780;SDS011;59514;48.810;2.134;2022-08-21T04:06:05;7.95;;;3.10;;
70780;SDS011;59514;48.810;2.134;2022-08-21T04:08:31;6.57;;;3.22;;
70780;SDS011;59514;48.810;2.134;2022-08-21T04:10:57;7.20;;;3.15;;
70780;SDS011;59514;48.810;2.134;2022-08-21T04:13:23;5.53;;;3.00;;
70780;SDS011;59514;48.810;2.134;2022-08-21T04:15:49;7.40;;;3.33;;
70780;SDS011;59514;48.810;2.134;2022-08-21T04:18:14;4.72;;;2.80;;
70780;SDS011;59514;48.810;2.134;2022-08-21T04:20:41;8.45;;;2.92;;
70780;SDS011;59514;48.810;2.134;2022-08-21T04:23:08;4.30;;;2.67;;
70780;SDS011;59514;48.810;2.134;2022-08-21T04:25:34;5.07;;;2.60;;
70780;SDS011;59514;48.810;2.134;2022-08-21T04:28:00;5.53;;;2.80;;
70780;SDS011;59514;48.810;2.134;2022-08-21T04:30:26;6.50;;;2.90;;
70780;SDS011;59514;48.810;2.134;2022-08-21T04:32:52;7.47;;;3.10;;
70780;SDS011;59514;48.810;2.134;2022-08-21T04:35:18;4.60;;;2.85;;
70780;SDS011;59514;48.810;2.134;2022-08-21T04:37:45;7.63;;;2.40;;
70780;SDS011;59514;48.810;2.134;2022-08-21T04:40:13;6.93;;;2.50;;
70780;SDS011;59514;48.810;2.134;2022-08-21T04:42:42;7.97;;;3.05;;
70780;SDS011;59514;48.810;2.134;2022-08-21T04:45:15;6.93;;;3.08;;
70780;SDS011;59514;48.810;2.134;2022-08-21T04:47:42;8.13;;;2.97;;
70780;SDS011;59514;48.810;2.134;2022-08-21T04:50:08;8.20;;;2.55;;
70780;SDS011;59514;48.810;2.134;2022-08-21T04:52:33;7.38;;;2.97;;
70780;SDS011;59514;48.810;2.134;2022-08-21T04:54:59;6.45;;;2.80;;
70780;SDS011;59514;48.810;2.134;2022-08-21T04:57:25;6.78;;;2.45;;
70780;SDS011;59514;48.810;2.134;2022-08-21T04:59:51;6.38;;;2.97;;
70780;SDS011;59514;48.810;2.134;2022-08-21T05:02:17;4.45;;;2.78;;
70780;SDS011;59514;48.810;2.134;2022-08-21T05:04:45;7.50;;;2.92;;
70780;SDS011;59514;48.810;2.134;2022-08-21T05:07:15;5.68;;;2.83;;
70780;SDS011;59514;48.810;2.134;2022-08-21T05:09:43;5.97;;;3.05;;
70780;SDS011;59514;48.810;2.134;2022-08-21T05:12:09;6.93;;;2.80;;
70780;SDS011;59514;48.810;2.134;2022-08-21T05:14:35;5.00;;;2.75;;
70780;SDS011;59514;48.810;2.134;2022-08-21T05:17:01;8.50;;;3.45;;
70780;SDS011;59514;48.810;2.134;2022-08-21T05:19:27;5.45;;;3.15;;
70780;SDS011;59514;48.810;2.134;2022-08-21T05:21:53;5.38;;;3.30;;
70780;SDS011;59514;48.810;2.134;2022-08-21T05:24:18;7.20;;;3.03;;
70780;SDS011;59514;48.810;2.134;2022-08-21T05:26:51;5.20;;;3.05;;
70780;SDS011;59514;48.810;2.134;2022-08-21T05:29:17;7.18;;;3.55;;
70780;SDS011;59514;48.810;2.134;2022-08-21T05:31:43;6.95;;;3.10;;
70780;SDS011;59514;48.810;2.134;2022-08-21T05:34:09;4.45;;;2.53;;
70780;SDS011;59514;48.810;2.134;2022-08-21T05:36:34;5.55;;;3.20;;
70780;SDS011;59514;48.810;2.134;2022-08-21T05:39:00;8.90;;;3.47;;
70780;SDS011;59514;48.810;2.134;2022-08-21T05:41:25;7.00;;;3.15;;
70780;SDS011;59514;48.810;2.134;2022-08-21T05:43:50;5.82;;;2.55;;
70780;SDS011;59514;48.810;2.134;2022-08-21T05:46:16;5.72;;;2.72;;
70780;SDS011;59514;48.810;2.134;2022-08-21T05:48:41;9.02;;;3.33;;
70780;SDS011;59514;48.810;2.134;2022-08-21T05:51:07;7.97;;;3.47;;
70780;SDS011;59514;48.810;2.134;2022-08-21T05:53:36;5.82;;;3.13;;
70780;SDS011;59514;48.810;2.134;2022-08-21T05:56:02;6.68;;;2.92;;
70780;SDS011;59514;48.810;2.134;2022-08-21T05:58:29;7.82;;;3.40;;
70780;SDS011;59514;48.810;2.134;2022-08-21T06:00:55;5.88;;;2.80;;
70780;SDS011;59514;48.810;2.134;2022-08-21T06:03:22;6.63;;;2.80;;
70780;SDS011;59514;48.810;2.134;2022-08-21T06:05:49;7.38;;;3.30;;
70780;SDS011;59514;48.810;2.134;2022-08-21T06:08:15;7.38;;;3.15;;
70780;SDS011;59514;48.810;2.134;2022-08-21T06:10:42;6.85;;;3.28;;
70780;SDS011;59514;48.810;2.134;2022-08-21T06:13:08;6.20;;;3.20;;
70780;SDS011;59514;48.810;2.134;2022-08-21T06:15:34;8.32;;;2.67;;
70780;SDS011;59514;48.810;2.134;2022-08-21T06:17:59;6.53;;;2.92;;
70780;SDS011;59514;48.810;2.134;2022-08-21T06:20:25;7.05;;;3.10;;
70780;SDS011;59514;48.810;2.134;2022-08-21T06:22:50;9.00;;;3.10;;
70780;SDS011;59514;48.810;2.134;2022-08-21T06:25:16;7.30;;;2.53;;
70780;SDS011;59514;48.810;2.134;2022-08-21T06:27:44;4.72;;;2.92;;
70780;SDS011;59514;48.810;2.134;2022-08-21T06:30:10;10.10;;;3.47;;
70780;SDS011;59514;48.810;2.134;2022-08-21T06:32:35;7.07;;;2.60;;
70780;SDS011;59514;48.810;2.134;2022-08-21T06:35:01;6.50;;;2.85;;
70780;SDS011;59514;48.810;2.134;2022-08-21T06:37:27;7.30;;;3.22;;
70780;SDS011;59514;48.810;2.134;2022-08-21T06:39:52;7.60;;;2.70;;
70780;SDS011;59514;48.810;2.134;2022-08-21T06:42:17;6.82;;;2.60;;
70780;SDS011;59514;48.810;2.134;2022-08-21T06:44:43;5.30;;;2.30;;
70780;SDS011;59514;48.810;2.134;2022-08-21T06:47:09;5.03;;;2.85;;
70780;SDS011;59514;48.810;2.134;2022-08-21T06:49:34;7.20;;;2.75;;
70780;SDS011;59514;48.810;2.134;2022-08-21T06:52:00;6.45;;;2.60;;
70780;SDS011;59514;48.810;2.134;2022-08-21T06:54:26;7.18;;;2.90;;
70780;SDS011;59514;48.810;2.134;2022-08-21T06:56:55;9.48;;;2.80;;
70780;SDS011;59514;48.810;2.134;2022-08-21T06:59:21;7.63;;;2.75;;
70780;SDS011;59514;48.810;2.134;2022-08-21T07:01:46;8.10;;;3.10;;
70780;SDS011;59514;48.810;2.134;2022-08-21T07:04:11;5.38;;;2.63;;
70780;SDS011;59514;48.810;2.134;2022-08-21T07:06:37;5.90;;;2.63;;
70780;SDS011;59514;48.810;2.134;2022-08-21T07:09:02;6.68;;;2.60;;
70780;SDS011;59514;48.810;2.134;2022-08-21T07:11:28;6.95;;;2.75;;
70780;SDS011;59514;48.810;2.134;2022-08-21T07:13:56;7.65;;;2.58;;
70780;SDS011;59514;48.810;2.134;2022-08-21T07:16:22;6.82;;;2.80;;
70780;SDS011;59514;48.810;2.134;2022-08-21T07:18:48;6.03;;;2.60;;
70780;SDS011;59514;48.810;2.134;2022-08-21T07:21:14;6.60;;;2.85;;
70780;SDS011;59514;48.810;2.134;2022-08-21T07:23:42;7.78;;;3.20;;
70780;SDS011;59514;48.810;2.134;2022-08-21T07:26:10;5.18;;;2.35;;
70780;SDS011;59514;48.810;2.134;2022-08-21T07:28:36;6.40;;;2.70;;
70780;SDS011;59514;48.810;2.134;2022-08-21T07:31:02;6.80;;;2.55;;
70780;SDS011;59514;48.810;2.134;2022-08-21T07:33:30;7.68;;;2.80;;
70780;SDS011;59514;48.810;2.134;2022-08-21T07:35:57;6.88;;;2.47;;
70780;SDS011;59514;48.810;2.134;2022-08-21T07:38:23;7.43;;;2.40;;
70780;SDS011;59514;48.810;2.134;2022-08-21T07:40:48;6.20;;;3.13;;
70780;SDS011;59514;48.810;2.134;2022-08-21T07:43:17;7.40;;;2.85;;
70780;SDS011;59514;48.810;2.134;2022-08-21T07:45:43;6.88;;;2.47;;
70780;SDS011;59514;48.810;2.134;2022-08-21T07:48:09;6.72;;;2.45;;
70780;SDS011;59514;48.810;2.134;2022-08-21T07:50:35;5.32;;;2.30;;
70780;SDS011;59514;48.810;2.134;2022-08-21T07:53:00;4.75;;;2.13;;
70780;SDS011;59514;48.810;2.134;2022-08-21T07:55:26;5.53;;;2.30;;
70780;SDS011;59514;48.810;2.134;2022-08-21T07:57:51;5.75;;;2.60;;
70780;SDS011;59514;48.810;2.134;2022-08-21T08:00:18;6.72;;;2.50;;
70780;SDS011;59514;48.810;2.134;2022-08-21T08:02:46;6.63;;;2.28;;
70780;SDS011;59514;48.810;2.134;2022-08-21T08:05:14;5.53;;;2.65;;
70780;SDS011;59514;48.810;2.134;2022-08-21T08:07:41;5.97;;;2.33;;
70780;SDS011;59514;48.810;2.134;2022-08-21T08:10:07;8.25;;;2.83;;
70780;SDS011;59514;48.810;2.134;2022-08-21T08:12:34;7.60;;;2.42;;
70780;SDS011;59514;48.810;2.134;2022-08-21T08:15:00;4.65;;;2.65;;
70780;SDS011;59514;48.810;2.134;2022-08-21T08:17:26;4.15;;;2.17;;
70780;SDS011;59514;48.810;2.134;2022-08-21T08:19:52;6.35;;;2.40;;
70780;SDS011;59514;48.810;2.134;2022-08-21T08:22:19;5.55;;;2.50;;
70780;SDS011;59514;48.810;2.134;2022-08-21T08:24:46;4.60;;;2.10;;
70780;SDS011;59514;48.810;2.134;2022-08-21T08:27:13;4.78;;;2.17;;
70780;SDS011;59514;48.810;2.134;2022-08-21T08:29:39;6.10;;;2.55;;
70780;SDS011;59514;48.810;2.134;2022-08-21T08:32:04;6.00;;;2.22;;
70780;SDS011;59514;48.810;2.134;2022-08-21T08:34:32;5.30;;;2.20;;
70780;SDS011;59514;48.810;2.134;2022-08-21T08:36:58;6.00;;;2.45;;
70780;SDS011;59514;48.810;2.134;2022-08-21T08:39:23;5.35;;;2.33;;
70780;SDS011;59514;48.810;2.134;2022-08-21T08:41:49;5.07;;;1.90;;
70780;SDS011;59514;48.810;2.134;2022-08-21T08:44:19;8.35;;;2.60;;
70780;SDS011;59514;48.810;2.134;2022-08-21T08:46:45;6.25;;;2.03;;
70780;SDS011;59514;48.810;2.134;2022-08-21T08:49:17;5.03;;;2.20;;
70780;SDS011;59514;48.810;2.134;2022-08-21T08:54:49;6.88;;;2.10;;
70780;SDS011;59514;48.810;2.134;2022-08-21T08:57:21;6.47;;;2.38;;
70780;SDS011;59514;48.810;2.134;2022-08-21T08:59:50;5.72;;;2.30;;
70780;SDS011;59514;48.810;2.134;2022-08-21T09:02:18;5.68;;;2.20;;
70780;SDS011;59514;48.810;2.134;2022-08-21T09:04:45;4.32;;;2.10;;
70780;SDS011;59514;48.810;2.134;2022-08-21T09:07:16;5.47;;;2.25;;
70780;SDS011;59514;48.810;2.134;2022-08-21T09:12:49;7.18;;;2.17;;
70780;SDS011;59514;48.810;2.134;2022-08-21T09:15:24;4.63;;;1.83;;
70780;SDS011;59514;48.810;2.134;2022-08-21T09:18:06;4.83;;;1.80;;
70780;SDS011;59514;48.810;2.134;2022-08-21T09:21:14;5.90;;;2.15;;
70780;SDS011;59514;48.810;2.134;2022-08-21T09:26:28;4.72;;;2.08;;
70780;SDS011;59514;48.810;2.134;2022-08-21T09:29:15;5.30;;;2.20;;
70780;SDS011;59514;48.810;2.134;2022-08-21T09:31:45;5.72;;;2.22;;
70780;SDS011;59514;48.810;2.134;2022-08-21T09:34:11;6.43;;;2.50;;
70780;SDS011;59514;48.810;2.134;2022-08-21T09:39:06;5.38;;;2.25;;
70780;SDS011;59514;48.810;2.134;2022-08-21T09:41:34;3.92;;;2.03;;
70780;SDS011;59514;48.810;2.134;2022-08-21T09:44:00;4.10;;;2.15;;
70780;SDS011;59514;48.810;2.134;2022-08-21T09:46:27;6.57;;;2.08;;
70780;SDS011;59514;48.810;2.134;2022-08-21T09:48:54;4.20;;;2.28;;
70780;SDS011;59514;48.810;2.134;2022-08-21T09:51:22;3.85;;;1.90;;
70780;SDS011;59514;48.810;2.134;2022-08-21T09:54:12;6.70;;;2.38;;
70780;SDS011;59514;48.810;2.134;2022-08-21T09:56:40;4.25;;;2.13;;
70780;SDS011;59514;48.810;2.134;2022-08-21T09:59:37;5.05;;;2.10;;
70780;SDS011;59514;48.810;2.134;2022-08-21T10:07:30;6.13;;;2.00;;
70780;SDS011;59514;48.810;2.134;2022-08-21T10:10:00;5.85;;;2.28;;
70780;SDS011;59514;48.810;2.134;2022-08-21T10:12:46;6.38;;;1.90;;
70780;SDS011;59514;48.810;2.134;2022-08-21T10:15:36;6.73;;;2.43;;
70780;SDS011;59514;48.810;2.134;2022-08-21T10:18:22;4.78;;;2.10;;
70780;SDS011;59514;48.810;2.134;2022-08-21T10:23:50;5.15;;;1.90;;
70780;SDS011;59514;48.810;2.134;2022-08-21T10:40:12;4.05;;;1.88;;
70780;SDS011;59514;48.810;2.134;2022-08-21T10:48:29;4.05;;;1.73;;
70780;SDS011;59514;48.810;2.134;2022-08-21T10:51:34;4.80;;;1.83;;
70780;SDS011;59514;48.810;2.134;2022-08-21T10:57:16;5.20;;;2.33;;
70780;SDS011;59514;48.810;2.134;2022-08-21T10:59:55;4.57;;;2.25;;
70780;SDS011;59514;48.810;2.134;2022-08-21T11:02:27;4.40;;;2.20;;
70780;SDS011;59514;48.810;2.134;2022-08-21T11:05:02;3.97;;;2.13;;
70780;SDS011;59514;48.810;2.134;2022-08-21T11:10:29;4.90;;;2.20;;
70780;SDS011;59514;48.810;2.134;2022-08-21T11:13:03;3.38;;;1.85;;
70780;SDS011;59514;48.810;2.134;2022-08-21T11:15:39;6.20;;;2.40;;
70780;SDS011;59514;48.810;2.134;2022-08-21T11:18:16;4.22;;;2.13;;
70780;SDS011;59514;48.810;2.134;2022-08-21T11:20:49;5.32;;;2.10;;
70780;SDS011;59514;48.810;2.134;2022-08-21T11:23:25;6.40;;;2.35;;
70780;SDS011;59514;48.810;2.134;2022-08-21T11:26:00;4.47;;;1.55;;
70780;SDS011;59514;48.810;2.134;2022-08-21T11:28:33;4.38;;;1.88;;
70780;SDS011;59514;48.810;2.134;2022-08-21T11:33:55;3.45;;;1.90;;
70780;SDS011;59514;48.810;2.134;2022-08-21T11:36:35;3.55;;;1.90;;
70780;SDS011;59514;48.810;2.134;2022-08-21T11:39:30;2.67;;;1.40;;
70780;SDS011;59514;48.810;2.134;2022-08-21T11:45:36;3.13;;;1.30;;
70780;SDS011;59514;48.810;2.134;2022-08-21T11:48:03;3.83;;;1.40;;
70780;SDS011;59514;48.810;2.134;2022-08-21T11:50:48;2.90;;;1.55;;
70780;SDS011;59514;48.810;2.134;2022-08-21T11:55:53;4.50;;;1.45;;
70780;SDS011;59514;48.810;2.134;2022-08-21T11:58:35;3.08;;;1.83;;
70780;SDS011;59514;48.810;2.134;2022-08-21T12:06:30;2.25;;;1.33;;
70780;SDS011;59514;48.810;2.134;2022-08-21T12:09:06;2.33;;;1.20;;
70780;SDS011;59514;48.810;2.134;2022-08-21T12:12:03;3.17;;;1.23;;
70780;SDS011;59514;48.810;2.134;2022-08-21T12:14:43;2.58;;;1.35;;
70780;SDS011;59514;48.810;2.134;2022-08-21T12:17:23;2.83;;;1.25;;
70780;SDS011;59514;48.810;2.134;2022-08-21T12:20:15;2.45;;;1.15;;
70780;SDS011;59514;48.810;2.134;2022-08-21T12:22:41;3.58;;;1.13;;
70780;SDS011;59514;48.810;2.134;2022-08-21T12:26:02;2.88;;;1.25;;
70780;SDS011;59514;48.810;2.134;2022-08-21T12:28:51;3.13;;;1.02;;
70780;SDS011;59514;48.810;2.134;2022-08-21T12:31:47;1.38;;;0.70;;
70780;SDS011;59514;48.810;2.134;2022-08-21T12:34:55;3.17;;;1.25;;
70780;SDS011;59514;48.810;2.134;2022-08-21T12:37:38;3.38;;;0.75;;
70780;SDS011;59514;48.810;2.134;2022-08-21T12:40:23;1.17;;;0.88;;
70780;SDS011;59514;48.810;2.134;2022-08-21T12:43:00;1.45;;;0.70;;
70780;SDS011;59514;48.810;2.134;2022-08-21T12:45:43;2.00;;;1.00;;
70780;SDS011;59514;48.810;2.134;2022-08-21T12:48:26;3.00;;;1.00;;
70780;SDS011;59514;48.810;2.134;2022-08-21T12:51:46;3.17;;;1.17;;
70780;SDS011;59514;48.810;2.134;2022-08-21T12:54:07;2.65;;;0.95;;
70780;SDS011;59514;48.810;2.134;2022-08-21T12:57:03;1.27;;;0.63;;
70780;SDS011;59514;48.810;2.134;2022-08-21T12:59:31;1.33;;;0.73;;
70780;SDS011;59514;48.810;2.134;2022-08-21T13:01:58;2.97;;;0.60;;
70780;SDS011;59514;48.810;2.134;2022-08-21T13:04:35;1.70;;;0.65;;
70780;SDS011;59514;48.810;2.134;2022-08-21T13:07:09;0.95;;;0.50;;
70780;SDS011;59514;48.810;2.134;2022-08-21T13:09:59;2.58;;;1.17;;
70780;SDS011;59514;48.810;2.134;2022-08-21T13:12:29;1.42;;;0.80;;
70780;SDS011;59514;48.810;2.134;2022-08-21T13:14:56;1.30;;;1.00;;
70780;SDS011;59514;48.810;2.134;2022-08-21T13:17:25;1.80;;;0.60;;
70780;SDS011;59514;48.810;2.134;2022-08-21T13:19:56;1.25;;;0.60;;
70780;SDS011;59514;48.810;2.134;2022-08-21T13:22:27;0.77;;;0.43;;
70780;SDS011;59514;48.810;2.134;2022-08-21T13:24:56;1.20;;;0.43;;
70780;SDS011;59514;48.810;2.134;2022-08-21T13:30:02;1.67;;;0.40;;
70780;SDS011;59514;48.810;2.134;2022-08-21T13:32:34;0.60;;;0.45;;
70780;SDS011;59514;48.810;2.134;2022-08-21T13:35:15;2.20;;;0.60;;
70780;SDS011;59514;48.810;2.134;2022-08-21T13:37:41;2.10;;;0.47;;
70780;SDS011;59514;48.810;2.134;2022-08-21T13:40:15;0.60;;;0.50;;
70780;SDS011;59514;48.810;2.134;2022-08-21T13:42:44;1.17;;;0.50;;
70780;SDS011;59514;48.810;2.134;2022-08-21T13:45:15;1.52;;;0.45;;
70780;SDS011;59514;48.810;2.134;2022-08-21T13:47:46;1.58;;;0.43;;
70780;SDS011;59514;48.810;2.134;2022-08-21T13:50:13;1.52;;;0.60;;
70780;SDS011;59514;48.810;2.134;2022-08-21T13:52:53;1.75;;;0.60;;
70780;SDS011;59514;48.810;2.134;2022-08-21T13:55:34;1.90;;;0.90;;
70780;SDS011;59514;48.810;2.134;2022-08-21T13:58:03;1.77;;;0.60;;
70780;SDS011;59514;48.810;2.134;2022-08-21T14:00:31;0.95;;;0.30;;
70780;SDS011;59514;48.810;2.134;2022-08-21T14:03:06;1.02;;;0.40;;
70780;SDS011;59514;48.810;2.134;2022-08-21T14:05:36;1.55;;;0.50;;
70780;SDS011;59514;48.810;2.134;2022-08-21T14:10:36;1.33;;;0.50;;
70780;SDS011;59514;48.810;2.134;2022-08-21T14:13:07;1.10;;;0.45;;
70780;SDS011;59514;48.810;2.134;2022-08-21T14:15:45;1.23;;;0.40;;
70780;SDS011;59514;48.810;2.134;2022-08-21T14:18:20;0.93;;;0.40;;
70780;SDS011;59514;48.810;2.134;2022-08-21T14:20:46;1.73;;;0.98;;
70780;SDS011;59514;48.810;2.134;2022-08-21T14:23:11;2.15;;;0.80;;
70780;SDS011;59514;48.810;2.134;2022-08-21T14:25:42;2.08;;;0.82;;
70780;SDS011;59514;48.810;2.134;2022-08-21T14:28:13;1.65;;;0.80;;
70780;SDS011;59514;48.810;2.134;2022-08-21T14:30:45;0.95;;;0.50;;
70780;SDS011;59514;48.810;2.134;2022-08-21T14:33:12;3.55;;;0.90;;
70780;SDS011;59514;48.810;2.134;2022-08-21T14:35:41;1.30;;;0.45;;
70780;SDS011;59514;48.810;2.134;2022-08-21T14:38:11;1.05;;;0.70;;
70780;SDS011;59514;48.810;2.134;2022-08-21T14:40:38;4.70;;;0.80;;
70780;SDS011;59514;48.810;2.134;2022-08-21T14:43:04;3.95;;;1.00;;
70780;SDS011;59514;48.810;2.134;2022-08-21T14:45:29;2.33;;;0.77;;
70780;SDS011;59514;48.810;2.134;2022-08-21T14:47:56;1.20;;;0.60;;
70780;SDS011;59514;48.810;2.134;2022-08-21T14:50:23;8.07;;;0.60;;
70780;SDS011;59514;48.810;2.134;2022-08-21T14:52:49;2.25;;;0.80;;
70780;SDS011;59514;48.810;2.134;2022-08-21T14:55:15;2.63;;;0.90;;
70780;SDS011;59514;48.810;2.134;2022-08-21T14:57:42;2.35;;;0.60;;
70780;SDS011;59514;48.810;2.134;2022-08-21T15:00:11;1.25;;;0.63;;
70780;SDS011;59514;48.810;2.134;2022-08-21T15:02:37;1.48;;;0.52;;
70780;SDS011;59514;48.810;2.134;2022-08-21T15:05:03;1.00;;;0.50;;
70780;SDS011;59514;48.810;2.134;2022-08-21T15:07:29;1.65;;;0.45;;
70780;SDS011;59514;48.810;2.134;2022-08-21T15:09:54;1.63;;;0.50;;
70780;SDS011;59514;48.810;2.134;2022-08-21T15:12:20;2.25;;;0.43;;
70780;SDS011;59514;48.810;2.134;2022-08-21T15:14:45;2.17;;;0.60;;
70780;SDS011;59514;48.810;2.134;2022-08-21T15:17:10;2.85;;;0.73;;
70780;SDS011;59514;48.810;2.134;2022-08-21T15:19:37;2.33;;;0.70;;
70780;SDS011;59514;48.810;2.134;2022-08-21T15:22:03;1.50;;;0.70;;
70780;SDS011;59514;48.810;2.134;2022-08-21T15:24:28;2.00;;;0.65;;
70780;SDS011;59514;48.810;2.134;2022-08-21T15:26:54;2.63;;;0.80;;
70780;SDS011;59514;48.810;2.134;2022-08-21T15:29:21;2.50;;;1.08;;
70780;SDS011;59514;48.810;2.134;2022-08-21T15:32:29;2.42;;;1.13;;
70780;SDS011;59514;48.810;2.134;2022-08-21T15:34:41;1.83;;;0.80;;
70780;SDS011;59514;48.810;2.134;2022-08-21T15:37:07;2.87;;;1.20;;
70780;SDS011;59514;48.810;2.134;2022-08-21T15:39:33;3.30;;;0.88;;
70780;SDS011;59514;48.810;2.134;2022-08-21T15:42:00;1.75;;;0.98;;
70780;SDS011;59514;48.810;2.134;2022-08-21T15:44:26;3.55;;;1.17;;
70780;SDS011;59514;48.810;2.134;2022-08-21T15:46:53;1.90;;;1.10;;
70780;SDS011;59514;48.810;2.134;2022-08-21T15:49:19;1.83;;;0.80;;
70780;SDS011;59514;48.810;2.134;2022-08-21T15:51:44;3.53;;;1.20;;
70780;SDS011;59514;48.810;2.134;2022-08-21T15:54:09;2.80;;;0.90;;
70780;SDS011;59514;48.810;2.134;2022-08-21T15:56:36;2.47;;;1.20;;
70780;SDS011;59514;48.810;2.134;2022-08-21T15:59:04;3.80;;;1.13;;
70780;SDS011;59514;48.810;2.134;2022-08-21T16:01:32;2.22;;;1.08;;
70780;SDS011;59514;48.810;2.134;2022-08-21T16:03:58;3.55;;;1.10;;
70780;SDS011;59514;48.810;2.134;2022-08-21T16:06:24;2.33;;;1.15;;